Hovedside
METAR-TAF:

METAR-TAF

Lufthavner :

Brussel lufthavn

Brussel, Belgia

breddegrad: 50-54N, lengdegrad: 004-32E, høyde over havet: 55 m

Gjeldene værobservasjon

Denne rapporten ble laget for 33 minutter siden, klokken 17:20 UTC
Vind 6 kt fra Nord, skiftende mellom Nordvest og Nordøst
Temperatur 19°C
Luftfuktighet 46%
Trykk 1025 hPa
Sikt 10 km eller mer
ingen skyer under 1500 m og ingen bygeskyer

METAR: EBBR 231720Z 35006KT 310V040 CAVOK 19/07 Q1025 NOSIG

Tid: 19:53 (17:53 UTC)

Varsel

Denne rapporten ble laget for 53 minutter siden, klokken 17:00 UTC
Varsel gyldig fra 23. klokken 18 UTC til 24. klokken 24 UTC
Vind 5 kt fra Nordvest
Sikt 10 km eller mer
ingen skyer under 1500 m og ingen bygeskyer

TAF: EBBR 231700Z 2318/2424 31005KT CAVOK

Værobservasjoner og værvarsel for over 4000 flyplasser (METAR- og TAF-rapporter).

Tilgjengelige stasjoner er representert av de røde og gule prikkene på kartet.

Hold musepekeren over prikken for å se navnet på stasjonen.

Klikk så for å se værobservasjoner og -varsler.

For å forandre kartet kan du klikke på den grønne knappen med svart kryss for å zoome inn, på den grønne knappen med strek for å zoome ut, eller på de grønne pilene for å se tilstøtende kart.


METAR-TAF: